Qualicum Beach, Canada
Current Conditions -  °F | °C
As of 6:00 PM on Friday 24 Oct 2014 (Local Time) from CYQQ Reporting Station
Broken Clouds Broken Clouds  
Wind Chill: 52°   Ceiling: 12000
Heat Index: 52°   Visibility: 20mi
Dew Point: 46°   Wind: 2mph
Humidity: 82%   Direction: 200°SSW
Pressure: 29.96"   Gusts: NA
Location:  49.35°N, 124.44°W
Report Text: CYQQ 250100Z 20002KT 20SM FEW060 BKN120 11/08 A2996 RMK SC2AC2 SLP145
Loading
Personal Weather Stations






























Interactive Weather Map
Tropical Storm Tracking
New forecast layout! Learn more

10-Day Weather Forecast

Advertisements
Track Severe Weather on mobile